sensor_id;sensor_type;location;lat;lon;timestamp;P1;durP1;ratioP1;P2;durP2;ratioP2
13388;SDS011;6764;53.250;10.410;2023-12-07T00:01:25;42.13;;;23.63;;
13388;SDS011;6764;53.250;10.410;2023-12-07T00:03:51;36.03;;;22.47;;
13388;SDS011;6764;53.250;10.410;2023-12-07T00:06:17;36.97;;;22.83;;
13388;SDS011;6764;53.250;10.410;2023-12-07T00:08:42;40.73;;;24.00;;
13388;SDS011;6764;53.250;10.410;2023-12-07T00:11:08;43.77;;;25.50;;
13388;SDS011;6764;53.250;10.410;2023-12-07T00:13:33;41.97;;;23.60;;
13388;SDS011;6764;53.250;10.410;2023-12-07T00:15:59;42.53;;;23.70;;
13388;SDS011;6764;53.250;10.410;2023-12-07T00:18:24;41.87;;;23.87;;
13388;SDS011;6764;53.250;10.410;2023-12-07T00:20:50;44.10;;;24.30;;
13388;SDS011;6764;53.250;10.410;2023-12-07T00:23:15;41.33;;;24.07;;
13388;SDS011;6764;53.250;10.410;2023-12-07T00:25:41;44.93;;;23.70;;
13388;SDS011;6764;53.250;10.410;2023-12-07T00:28:07;41.57;;;24.03;;
13388;SDS011;6764;53.250;10.410;2023-12-07T00:30:32;46.77;;;23.77;;
13388;SDS011;6764;53.250;10.410;2023-12-07T00:32:58;43.27;;;23.97;;
13388;SDS011;6764;53.250;10.410;2023-12-07T00:35:25;39.97;;;24.33;;
13388;SDS011;6764;53.250;10.410;2023-12-07T00:37:53;44.97;;;24.97;;
13388;SDS011;6764;53.250;10.410;2023-12-07T00:40:22;42.07;;;23.20;;
13388;SDS011;6764;53.250;10.410;2023-12-07T00:42:49;42.50;;;24.33;;
13388;SDS011;6764;53.250;10.410;2023-12-07T00:45:14;43.90;;;24.30;;
13388;SDS011;6764;53.250;10.410;2023-12-07T00:47:40;45.47;;;23.30;;
13388;SDS011;6764;53.250;10.410;2023-12-07T00:50:06;43.23;;;23.83;;
13388;SDS011;6764;53.250;10.410;2023-12-07T00:52:31;44.57;;;25.87;;
13388;SDS011;6764;53.250;10.410;2023-12-07T00:54:57;41.30;;;23.47;;
13388;SDS011;6764;53.250;10.410;2023-12-07T00:57:23;40.73;;;24.27;;
13388;SDS011;6764;53.250;10.410;2023-12-07T00:59:48;43.27;;;23.37;;
13388;SDS011;6764;53.250;10.410;2023-12-07T01:02:14;40.20;;;23.33;;
13388;SDS011;6764;53.250;10.410;2023-12-07T01:04:39;44.87;;;25.07;;
13388;SDS011;6764;53.250;10.410;2023-12-07T01:07:05;38.53;;;22.97;;
13388;SDS011;6764;53.250;10.410;2023-12-07T01:09:31;42.70;;;23.27;;
13388;SDS011;6764;53.250;10.410;2023-12-07T01:11:56;41.80;;;24.90;;
13388;SDS011;6764;53.250;10.410;2023-12-07T01:14:23;39.83;;;23.03;;
13388;SDS011;6764;53.250;10.410;2023-12-07T01:16:49;38.03;;;22.00;;
13388;SDS011;6764;53.250;10.410;2023-12-07T01:19:14;40.13;;;23.67;;
13388;SDS011;6764;53.250;10.410;2023-12-07T01:21:43;35.90;;;22.67;;
13388;SDS011;6764;53.250;10.410;2023-12-07T01:24:09;37.90;;;22.30;;
13388;SDS011;6764;53.250;10.410;2023-12-07T01:26:35;38.07;;;22.73;;
13388;SDS011;6764;53.250;10.410;2023-12-07T01:29:00;32.93;;;22.10;;
13388;SDS011;6764;53.250;10.410;2023-12-07T01:31:27;34.13;;;21.20;;
13388;SDS011;6764;53.250;10.410;2023-12-07T01:33:53;33.93;;;20.83;;
13388;SDS011;6764;53.250;10.410;2023-12-07T01:36:19;33.80;;;21.07;;
13388;SDS011;6764;53.250;10.410;2023-12-07T01:38:45;35.10;;;21.43;;
13388;SDS011;6764;53.250;10.410;2023-12-07T01:41:11;32.27;;;19.43;;
13388;SDS011;6764;53.250;10.410;2023-12-07T01:43:36;32.47;;;20.27;;
13388;SDS011;6764;53.250;10.410;2023-12-07T01:46:02;31.50;;;19.87;;
13388;SDS011;6764;53.250;10.410;2023-12-07T01:48:28;33.07;;;20.83;;
13388;SDS011;6764;53.250;10.410;2023-12-07T01:50:55;33.27;;;21.70;;
13388;SDS011;6764;53.250;10.410;2023-12-07T01:53:23;31.90;;;19.87;;
13388;SDS011;6764;53.250;10.410;2023-12-07T01:55:50;33.50;;;20.53;;
13388;SDS011;6764;53.250;10.410;2023-12-07T01:58:17;29.80;;;19.20;;
13388;SDS011;6764;53.250;10.410;2023-12-07T02:00:44;32.03;;;20.83;;
13388;SDS011;6764;53.250;10.410;2023-12-07T02:03:10;32.73;;;21.30;;
13388;SDS011;6764;53.250;10.410;2023-12-07T02:05:36;31.50;;;19.93;;
13388;SDS011;6764;53.250;10.410;2023-12-07T02:08:02;30.97;;;20.17;;
13388;SDS011;6764;53.250;10.410;2023-12-07T02:10:28;29.27;;;20.03;;
13388;SDS011;6764;53.250;10.410;2023-12-07T02:12:54;34.50;;;20.63;;
13388;SDS011;6764;53.250;10.410;2023-12-07T02:15:20;35.60;;;20.97;;
13388;SDS011;6764;53.250;10.410;2023-12-07T02:23:46;33.60;;;21.07;;
13388;SDS011;6764;53.250;10.410;2023-12-07T02:26:16;38.23;;;22.33;;
13388;SDS011;6764;53.250;10.410;2023-12-07T02:28:44;34.13;;;20.73;;
13388;SDS011;6764;53.250;10.410;2023-12-07T02:31:10;38.00;;;22.70;;
13388;SDS011;6764;53.250;10.410;2023-12-07T02:33:35;40.37;;;23.27;;
13388;SDS011;6764;53.250;10.410;2023-12-07T02:36:01;48.73;;;25.00;;
13388;SDS011;6764;53.250;10.410;2023-12-07T02:38:27;50.40;;;24.97;;
13388;SDS011;6764;53.250;10.410;2023-12-07T02:40:54;45.43;;;25.40;;
13388;SDS011;6764;53.250;10.410;2023-12-07T02:43:21;54.13;;;26.10;;
13388;SDS011;6764;53.250;10.410;2023-12-07T02:45:47;52.40;;;25.40;;
13388;SDS011;6764;53.250;10.410;2023-12-07T02:48:13;53.10;;;25.17;;
13388;SDS011;6764;53.250;10.410;2023-12-07T02:50:39;48.07;;;26.13;;
13388;SDS011;6764;53.250;10.410;2023-12-07T02:53:05;57.20;;;26.53;;
13388;SDS011;6764;53.250;10.410;2023-12-07T02:55:31;60.73;;;28.40;;
13388;SDS011;6764;53.250;10.410;2023-12-07T02:57:56;58.23;;;26.37;;
13388;SDS011;6764;53.250;10.410;2023-12-07T03:00:22;61.43;;;27.93;;
13388;SDS011;6764;53.250;10.410;2023-12-07T03:02:48;55.53;;;26.73;;
13388;SDS011;6764;53.250;10.410;2023-12-07T03:05:15;66.13;;;28.27;;
13388;SDS011;6764;53.250;10.410;2023-12-07T03:07:41;67.83;;;27.77;;
13388;SDS011;6764;53.250;10.410;2023-12-07T03:10:06;64.57;;;27.90;;
13388;SDS011;6764;53.250;10.410;2023-12-07T03:12:32;63.10;;;27.47;;
13388;SDS011;6764;53.250;10.410;2023-12-07T03:14:58;66.60;;;28.97;;
13388;SDS011;6764;53.250;10.410;2023-12-07T03:17:23;65.57;;;28.07;;
13388;SDS011;6764;53.250;10.410;2023-12-07T03:19:49;72.50;;;29.17;;
13388;SDS011;6764;53.250;10.410;2023-12-07T03:22:14;63.33;;;28.40;;
13388;SDS011;6764;53.250;10.410;2023-12-07T03:24:43;63.53;;;28.10;;
13388;SDS011;6764;53.250;10.410;2023-12-07T03:27:11;65.53;;;27.60;;
13388;SDS011;6764;53.250;10.410;2023-12-07T03:29:37;63.90;;;27.07;;
13388;SDS011;6764;53.250;10.410;2023-12-07T03:32:02;64.73;;;27.80;;
13388;SDS011;6764;53.250;10.410;2023-12-07T03:34:28;64.37;;;26.93;;
13388;SDS011;6764;53.250;10.410;2023-12-07T03:36:54;65.60;;;27.40;;
13388;SDS011;6764;53.250;10.410;2023-12-07T03:39:19;60.67;;;28.30;;
13388;SDS011;6764;53.250;10.410;2023-12-07T03:41:47;64.30;;;27.43;;
13388;SDS011;6764;53.250;10.410;2023-12-07T03:44:13;65.67;;;28.27;;
13388;SDS011;6764;53.250;10.410;2023-12-07T03:46:39;59.60;;;26.70;;
13388;SDS011;6764;53.250;10.410;2023-12-07T03:49:05;60.03;;;27.90;;
13388;SDS011;6764;53.250;10.410;2023-12-07T03:51:31;60.60;;;27.37;;
13388;SDS011;6764;53.250;10.410;2023-12-07T03:53:57;65.47;;;27.43;;
13388;SDS011;6764;53.250;10.410;2023-12-07T03:56:25;64.90;;;29.07;;
13388;SDS011;6764;53.250;10.410;2023-12-07T03:58:52;67.73;;;27.63;;
13388;SDS011;6764;53.250;10.410;2023-12-07T04:01:22;61.90;;;30.03;;
13388;SDS011;6764;53.250;10.410;2023-12-07T04:03:48;57.13;;;27.60;;
13388;SDS011;6764;53.250;10.410;2023-12-07T04:06:14;54.63;;;27.10;;
13388;SDS011;6764;53.250;10.410;2023-12-07T04:08:40;55.73;;;26.80;;
13388;SDS011;6764;53.250;10.410;2023-12-07T04:11:06;58.90;;;27.40;;
13388;SDS011;6764;53.250;10.410;2023-12-07T04:13:31;55.80;;;27.00;;
13388;SDS011;6764;53.250;10.410;2023-12-07T04:15:57;55.67;;;27.23;;
13388;SDS011;6764;53.250;10.410;2023-12-07T04:18:22;61.10;;;28.27;;
13388;SDS011;6764;53.250;10.410;2023-12-07T04:20:48;57.47;;;27.23;;
13388;SDS011;6764;53.250;10.410;2023-12-07T04:23:14;57.97;;;28.27;;
13388;SDS011;6764;53.250;10.410;2023-12-07T04:25:39;51.00;;;25.47;;
13388;SDS011;6764;53.250;10.410;2023-12-07T04:28:05;57.00;;;28.30;;
13388;SDS011;6764;53.250;10.410;2023-12-07T04:30:30;61.90;;;28.67;;
13388;SDS011;6764;53.250;10.410;2023-12-07T04:32:59;57.37;;;28.00;;
13388;SDS011;6764;53.250;10.410;2023-12-07T04:35:24;54.00;;;27.37;;
13388;SDS011;6764;53.250;10.410;2023-12-07T04:37:50;56.27;;;28.07;;
13388;SDS011;6764;53.250;10.410;2023-12-07T04:40:17;56.00;;;27.13;;
13388;SDS011;6764;53.250;10.410;2023-12-07T04:42:42;63.37;;;27.93;;
13388;SDS011;6764;53.250;10.410;2023-12-07T04:45:08;55.97;;;26.00;;
13388;SDS011;6764;53.250;10.410;2023-12-07T04:47:34;54.63;;;27.10;;
13388;SDS011;6764;53.250;10.410;2023-12-07T04:49:59;52.73;;;27.60;;
13388;SDS011;6764;53.250;10.410;2023-12-07T04:52:25;54.00;;;29.30;;
13388;SDS011;6764;53.250;10.410;2023-12-07T04:54:51;53.90;;;27.57;;
13388;SDS011;6764;53.250;10.410;2023-12-07T04:57:16;58.20;;;28.60;;
13388;SDS011;6764;53.250;10.410;2023-12-07T04:59:42;59.97;;;29.10;;
13388;SDS011;6764;53.250;10.410;2023-12-07T05:02:12;58.60;;;28.30;;
13388;SDS011;6764;53.250;10.410;2023-12-07T05:04:41;52.67;;;26.97;;
13388;SDS011;6764;53.250;10.410;2023-12-07T05:07:07;57.17;;;28.47;;
13388;SDS011;6764;53.250;10.410;2023-12-07T05:09:33;58.43;;;28.33;;
13388;SDS011;6764;53.250;10.410;2023-12-07T05:11:59;54.93;;;28.50;;
13388;SDS011;6764;53.250;10.410;2023-12-07T05:14:24;56.20;;;28.70;;
13388;SDS011;6764;53.250;10.410;2023-12-07T05:16:50;55.03;;;28.37;;
13388;SDS011;6764;53.250;10.410;2023-12-07T05:19:20;55.93;;;29.53;;
13388;SDS011;6764;53.250;10.410;2023-12-07T05:21:49;56.57;;;28.70;;
13388;SDS011;6764;53.250;10.410;2023-12-07T05:24:16;55.47;;;27.60;;
13388;SDS011;6764;53.250;10.410;2023-12-07T05:26:42;55.47;;;28.53;;
13388;SDS011;6764;53.250;10.410;2023-12-07T05:29:10;56.17;;;27.40;;
13388;SDS011;6764;53.250;10.410;2023-12-07T05:31:36;52.83;;;27.70;;
13388;SDS011;6764;53.250;10.410;2023-12-07T05:34:02;55.20;;;27.47;;
13388;SDS011;6764;53.250;10.410;2023-12-07T05:36:28;52.17;;;28.97;;
13388;SDS011;6764;53.250;10.410;2023-12-07T05:38:54;52.67;;;28.07;;
13388;SDS011;6764;53.250;10.410;2023-12-07T05:41:20;51.37;;;26.00;;
13388;SDS011;6764;53.250;10.410;2023-12-07T05:43:45;56.60;;;27.53;;
13388;SDS011;6764;53.250;10.410;2023-12-07T05:46:11;56.40;;;28.30;;
13388;SDS011;6764;53.250;10.410;2023-12-07T05:48:36;50.83;;;26.37;;
13388;SDS011;6764;53.250;10.410;2023-12-07T05:51:03;54.00;;;28.87;;
13388;SDS011;6764;53.250;10.410;2023-12-07T05:53:28;56.73;;;28.73;;
13388;SDS011;6764;53.250;10.410;2023-12-07T05:55:55;54.20;;;28.13;;
13388;SDS011;6764;53.250;10.410;2023-12-07T05:58:20;52.33;;;27.53;;
13388;SDS011;6764;53.250;10.410;2023-12-07T06:00:46;52.93;;;27.20;;
13388;SDS011;6764;53.250;10.410;2023-12-07T06:03:12;53.80;;;27.27;;
13388;SDS011;6764;53.250;10.410;2023-12-07T06:05:38;48.93;;;26.40;;
13388;SDS011;6764;53.250;10.410;2023-12-07T06:08:05;53.60;;;27.97;;
13388;SDS011;6764;53.250;10.410;2023-12-07T06:10:31;52.77;;;27.53;;
13388;SDS011;6764;53.250;10.410;2023-12-07T06:12:57;51.20;;;26.97;;
13388;SDS011;6764;53.250;10.410;2023-12-07T06:15:25;52.97;;;27.13;;
13388;SDS011;6764;53.250;10.410;2023-12-07T06:17:51;48.00;;;26.70;;
13388;SDS011;6764;53.250;10.410;2023-12-07T06:20:17;55.33;;;29.40;;
13388;SDS011;6764;53.250;10.410;2023-12-07T06:22:42;53.47;;;27.43;;
13388;SDS011;6764;53.250;10.410;2023-12-07T06:25:08;49.47;;;26.27;;
13388;SDS011;6764;53.250;10.410;2023-12-07T06:27:37;52.40;;;28.73;;
13388;SDS011;6764;53.250;10.410;2023-12-07T06:30:06;57.20;;;28.17;;
13388;SDS011;6764;53.250;10.410;2023-12-07T06:32:32;54.50;;;27.97;;
13388;SDS011;6764;53.250;10.410;2023-12-07T06:34:58;51.93;;;28.17;;
13388;SDS011;6764;53.250;10.410;2023-12-07T06:37:23;45.40;;;26.83;;
13388;SDS011;6764;53.250;10.410;2023-12-07T06:39:49;51.43;;;28.50;;
13388;SDS011;6764;53.250;10.410;2023-12-07T06:42:15;48.77;;;27.03;;
13388;SDS011;6764;53.250;10.410;2023-12-07T06:44:46;46.63;;;26.87;;
13388;SDS011;6764;53.250;10.410;2023-12-07T06:47:14;47.97;;;26.67;;
13388;SDS011;6764;53.250;10.410;2023-12-07T06:49:40;49.33;;;27.87;;
13388;SDS011;6764;53.250;10.410;2023-12-07T06:52:06;49.77;;;27.23;;
13388;SDS011;6764;53.250;10.410;2023-12-07T06:54:31;48.93;;;26.97;;
13388;SDS011;6764;53.250;10.410;2023-12-07T06:56:57;51.23;;;26.83;;
13388;SDS011;6764;53.250;10.410;2023-12-07T06:59:23;47.97;;;28.17;;
13388;SDS011;6764;53.250;10.410;2023-12-07T07:01:48;49.33;;;27.17;;
13388;SDS011;6764;53.250;10.410;2023-12-07T07:04:14;46.30;;;27.20;;
13388;SDS011;6764;53.250;10.410;2023-12-07T07:06:41;50.27;;;27.83;;
13388;SDS011;6764;53.250;10.410;2023-12-07T07:09:07;47.60;;;26.87;;
13388;SDS011;6764;53.250;10.410;2023-12-07T07:11:33;47.83;;;27.70;;
13388;SDS011;6764;53.250;10.410;2023-12-07T07:13:59;44.97;;;26.93;;
13388;SDS011;6764;53.250;10.410;2023-12-07T07:16:25;46.37;;;27.33;;
13388;SDS011;6764;53.250;10.410;2023-12-07T07:18:51;44.67;;;26.87;;
13388;SDS011;6764;53.250;10.410;2023-12-07T07:21:16;46.37;;;28.00;;
13388;SDS011;6764;53.250;10.410;2023-12-07T07:23:42;44.73;;;26.07;;
13388;SDS011;6764;53.250;10.410;2023-12-07T07:26:07;44.53;;;27.27;;
13388;SDS011;6764;53.250;10.410;2023-12-07T07:28:33;39.57;;;26.00;;
13388;SDS011;6764;53.250;10.410;2023-12-07T07:30:59;42.83;;;27.90;;
13388;SDS011;6764;53.250;10.410;2023-12-07T07:33:25;41.67;;;26.97;;
13388;SDS011;6764;53.250;10.410;2023-12-07T07:35:51;45.93;;;28.13;;
13388;SDS011;6764;53.250;10.410;2023-12-07T07:38:16;42.90;;;27.60;;
13388;SDS011;6764;53.250;10.410;2023-12-07T07:40:42;40.90;;;26.93;;
13388;SDS011;6764;53.250;10.410;2023-12-07T07:43:07;42.27;;;28.57;;
13388;SDS011;6764;53.250;10.410;2023-12-07T07:45:33;46.47;;;26.53;;
13388;SDS011;6764;53.250;10.410;2023-12-07T07:47:59;39.53;;;24.53;;
13388;SDS011;6764;53.250;10.410;2023-12-07T07:50:25;40.67;;;25.47;;
13388;SDS011;6764;53.250;10.410;2023-12-07T07:52:51;38.63;;;26.10;;
13388;SDS011;6764;53.250;10.410;2023-12-07T07:55:16;42.17;;;25.97;;
13388;SDS011;6764;53.250;10.410;2023-12-07T07:57:43;40.03;;;26.83;;
13388;SDS011;6764;53.250;10.410;2023-12-07T08:00:08;39.43;;;25.70;;
13388;SDS011;6764;53.250;10.410;2023-12-07T08:02:34;40.27;;;25.50;;
13388;SDS011;6764;53.250;10.410;2023-12-07T08:05:03;46.63;;;29.70;;
13388;SDS011;6764;53.250;10.410;2023-12-07T08:07:29;42.50;;;26.67;;
13388;SDS011;6764;53.250;10.410;2023-12-07T08:09:55;40.07;;;26.13;;
13388;SDS011;6764;53.250;10.410;2023-12-07T08:12:21;44.73;;;26.63;;
13388;SDS011;6764;53.250;10.410;2023-12-07T08:14:49;44.37;;;26.90;;
13388;SDS011;6764;53.250;10.410;2023-12-07T08:17:15;43.70;;;27.07;;
13388;SDS011;6764;53.250;10.410;2023-12-07T08:19:44;43.63;;;27.20;;
13388;SDS011;6764;53.250;10.410;2023-12-07T08:22:09;41.67;;;26.27;;
13388;SDS011;6764;53.250;10.410;2023-12-07T08:24:35;46.23;;;27.83;;
13388;SDS011;6764;53.250;10.410;2023-12-07T08:27:03;45.27;;;28.40;;
13388;SDS011;6764;53.250;10.410;2023-12-07T08:29:30;42.73;;;28.17;;
13388;SDS011;6764;53.250;10.410;2023-12-07T08:31:55;41.80;;;27.83;;
13388;SDS011;6764;53.250;10.410;2023-12-07T08:34:21;45.53;;;27.37;;
13388;SDS011;6764;53.250;10.410;2023-12-07T08:36:46;43.53;;;26.73;;
13388;SDS011;6764;53.250;10.410;2023-12-07T08:39:12;40.93;;;27.93;;
13388;SDS011;6764;53.250;10.410;2023-12-07T08:41:38;41.50;;;26.07;;
13388;SDS011;6764;53.250;10.410;2023-12-07T08:44:04;41.33;;;26.60;;
13388;SDS011;6764;53.250;10.410;2023-12-07T08:46:30;42.93;;;27.10;;
13388;SDS011;6764;53.250;10.410;2023-12-07T08:48:56;40.30;;;26.20;;
13388;SDS011;6764;53.250;10.410;2023-12-07T08:51:22;39.63;;;25.30;;
13388;SDS011;6764;53.250;10.410;2023-12-07T08:53:47;40.60;;;26.77;;
13388;SDS011;6764;53.250;10.410;2023-12-07T08:56:14;38.70;;;26.00;;
13388;SDS011;6764;53.250;10.410;2023-12-07T08:58:40;40.63;;;27.27;;
13388;SDS011;6764;53.250;10.410;2023-12-07T09:01:06;33.53;;;24.17;;
13388;SDS011;6764;53.250;10.410;2023-12-07T09:03:32;39.27;;;26.97;;
13388;SDS011;6764;53.250;10.410;2023-12-07T09:05:58;39.30;;;26.67;;
13388;SDS011;6764;53.250;10.410;2023-12-07T09:08:24;37.73;;;25.83;;
13388;SDS011;6764;53.250;10.410;2023-12-07T09:10:50;38.27;;;25.47;;
13388;SDS011;6764;53.250;10.410;2023-12-07T09:13:17;38.00;;;26.07;;
13388;SDS011;6764;53.250;10.410;2023-12-07T09:15:43;41.93;;;27.63;;
13388;SDS011;6764;53.250;10.410;2023-12-07T09:18:09;36.40;;;25.10;;
13388;SDS011;6764;53.250;10.410;2023-12-07T09:20:36;38.07;;;26.60;;
13388;SDS011;6764;53.250;10.410;2023-12-07T09:23:02;38.03;;;26.00;;
13388;SDS011;6764;53.250;10.410;2023-12-07T09:25:28;36.57;;;24.83;;
13388;SDS011;6764;53.250;10.410;2023-12-07T09:27:57;38.63;;;26.17;;
13388;SDS011;6764;53.250;10.410;2023-12-07T09:30:24;40.13;;;26.20;;
13388;SDS011;6764;53.250;10.410;2023-12-07T09:32:50;42.53;;;27.03;;
13388;SDS011;6764;53.250;10.410;2023-12-07T09:35:15;38.63;;;26.37;;
13388;SDS011;6764;53.250;10.410;2023-12-07T09:37:44;40.87;;;27.40;;
13388;SDS011;6764;53.250;10.410;2023-12-07T09:40:22;39.27;;;27.20;;
13388;SDS011;6764;53.250;10.410;2023-12-07T09:42:49;41.70;;;27.53;;
13388;SDS011;6764;53.250;10.410;2023-12-07T09:45:16;40.00;;;27.60;;
13388;SDS011;6764;53.250;10.410;2023-12-07T09:47:43;41.23;;;26.00;;
13388;SDS011;6764;53.250;10.410;2023-12-07T09:50:13;41.03;;;28.17;;
13388;SDS011;6764;53.250;10.410;2023-12-07T09:52:41;39.23;;;26.27;;
13388;SDS011;6764;53.250;10.410;2023-12-07T09:55:07;40.77;;;27.63;;
13388;SDS011;6764;53.250;10.410;2023-12-07T09:57:35;42.93;;;27.63;;
13388;SDS011;6764;53.250;10.410;2023-12-07T10:00:03;43.10;;;29.27;;
13388;SDS011;6764;53.250;10.410;2023-12-07T10:02:29;42.10;;;27.63;;
13388;SDS011;6764;53.250;10.410;2023-12-07T10:05:08;40.73;;;27.63;;
13388;SDS011;6764;53.250;10.410;2023-12-07T10:07:36;38.93;;;26.93;;
13388;SDS011;6764;53.250;10.410;2023-12-07T10:10:05;41.97;;;28.67;;
13388;SDS011;6764;53.250;10.410;2023-12-07T10:12:31;38.57;;;26.07;;
13388;SDS011;6764;53.250;10.410;2023-12-07T10:15:22;36.50;;;26.10;;
13388;SDS011;6764;53.250;10.410;2023-12-07T10:17:52;35.73;;;25.27;;
13388;SDS011;6764;53.250;10.410;2023-12-07T10:20:22;35.50;;;25.37;;
13388;SDS011;6764;53.250;10.410;2023-12-07T10:22:48;34.33;;;24.80;;
13388;SDS011;6764;53.250;10.410;2023-12-07T10:25:38;33.50;;;24.20;;
13388;SDS011;6764;53.250;10.410;2023-12-07T10:28:05;35.00;;;24.57;;
13388;SDS011;6764;53.250;10.410;2023-12-07T10:30:33;39.23;;;26.17;;
13388;SDS011;6764;53.250;10.410;2023-12-07T10:32:59;36.13;;;25.63;;
13388;SDS011;6764;53.250;10.410;2023-12-07T10:35:24;38.30;;;24.93;;
13388;SDS011;6764;53.250;10.410;2023-12-07T10:37:50;34.10;;;25.00;;
13388;SDS011;6764;53.250;10.410;2023-12-07T10:40:16;42.03;;;27.03;;
13388;SDS011;6764;53.250;10.410;2023-12-07T10:42:44;39.40;;;26.33;;
13388;SDS011;6764;53.250;10.410;2023-12-07T10:45:13;36.30;;;24.83;;
13388;SDS011;6764;53.250;10.410;2023-12-07T10:47:40;37.23;;;25.47;;
13388;SDS011;6764;53.250;10.410;2023-12-07T10:50:09;30.63;;;24.37;;
13388;SDS011;6764;53.250;10.410;2023-12-07T10:52:44;31.13;;;22.90;;
13388;SDS011;6764;53.250;10.410;2023-12-07T10:55:16;32.43;;;23.17;;
13388;SDS011;6764;53.250;10.410;2023-12-07T10:57:47;31.63;;;23.17;;
13388;SDS011;6764;53.250;10.410;2023-12-07T11:00:14;34.90;;;23.50;;
13388;SDS011;6764;53.250;10.410;2023-12-07T11:02:40;29.50;;;23.20;;
13388;SDS011;6764;53.250;10.410;2023-12-07T11:05:08;32.33;;;24.03;;
13388;SDS011;6764;53.250;10.410;2023-12-07T11:07:47;29.90;;;23.37;;
13388;SDS011;6764;53.250;10.410;2023-12-07T11:11:06;30.90;;;22.87;;
13388;SDS011;6764;53.250;10.410;2023-12-07T11:13:20;28.83;;;22.13;;
13388;SDS011;6764;53.250;10.410;2023-12-07T11:15:52;29.63;;;20.87;;
13388;SDS011;6764;53.250;10.410;2023-12-07T11:18:18;27.37;;;22.20;;
13388;SDS011;6764;53.250;10.410;2023-12-07T11:20:44;27.70;;;22.13;;
13388;SDS011;6764;53.250;10.410;2023-12-07T11:23:11;29.93;;;23.57;;
13388;SDS011;6764;53.250;10.410;2023-12-07T11:25:41;27.03;;;22.23;;
13388;SDS011;6764;53.250;10.410;2023-12-07T11:28:10;29.43;;;21.30;;
13388;SDS011;6764;53.250;10.410;2023-12-07T11:30:36;28.63;;;22.20;;
13388;SDS011;6764;53.250;10.410;2023-12-07T11:33:05;28.27;;;21.63;;
13388;SDS011;6764;53.250;10.410;2023-12-07T11:35:31;28.40;;;22.33;;
13388;SDS011;6764;53.250;10.410;2023-12-07T11:38:04;30.40;;;22.23;;
13388;SDS011;6764;53.250;10.410;2023-12-07T11:40:35;33.23;;;22.03;;
13388;SDS011;6764;53.250;10.410;2023-12-07T11:43:01;27.20;;;20.60;;
13388;SDS011;6764;53.250;10.410;2023-12-07T11:45:36;27.03;;;20.70;;
13388;SDS011;6764;53.250;10.410;2023-12-07T11:48:06;26.70;;;19.53;;
13388;SDS011;6764;53.250;10.410;2023-12-07T11:50:36;28.07;;;20.50;;
13388;SDS011;6764;53.250;10.410;2023-12-07T11:53:19;27.53;;;21.40;;
13388;SDS011;6764;53.250;10.410;2023-12-07T11:55:49;25.33;;;20.63;;
13388;SDS011;6764;53.250;10.410;2023-12-07T11:58:15;26.17;;;21.00;;
13388;SDS011;6764;53.250;10.410;2023-12-07T12:00:41;25.90;;;19.57;;
13388;SDS011;6764;53.250;10.410;2023-12-07T12:03:08;28.67;;;21.47;;
13388;SDS011;6764;53.250;10.410;2023-12-07T12:05:33;33.17;;;23.40;;
13388;SDS011;6764;53.250;10.410;2023-12-07T12:07:59;26.90;;;21.27;;
13388;SDS011;6764;53.250;10.410;2023-12-07T12:10:24;27.27;;;21.07;;
13388;SDS011;6764;53.250;10.410;2023-12-07T12:12:53;29.97;;;22.03;;
13388;SDS011;6764;53.250;10.410;2023-12-07T12:15:19;25.43;;;19.93;;
13388;SDS011;6764;53.250;10.410;2023-12-07T12:17:45;24.13;;;18.73;;
13388;SDS011;6764;53.250;10.410;2023-12-07T12:20:11;24.27;;;19.57;;
13388;SDS011;6764;53.250;10.410;2023-12-07T12:22:42;30.97;;;19.73;;
13388;SDS011;6764;53.250;10.410;2023-12-07T12:25:10;24.80;;;19.77;;
13388;SDS011;6764;53.250;10.410;2023-12-07T12:27:37;25.77;;;20.20;;
13388;SDS011;6764;53.250;10.410;2023-12-07T12:30:03;24.83;;;20.23;;
13388;SDS011;6764;53.250;10.410;2023-12-07T12:32:42;27.50;;;20.13;;
13388;SDS011;6764;53.250;10.410;2023-12-07T12:35:12;28.43;;;20.53;;
13388;SDS011;6764;53.250;10.410;2023-12-07T12:37:39;24.63;;;19.63;;
13388;SDS011;6764;53.250;10.410;2023-12-07T12:40:07;24.27;;;19.30;;
13388;SDS011;6764;53.250;10.410;2023-12-07T12:42:33;28.87;;;20.90;;
13388;SDS011;6764;53.250;10.410;2023-12-07T12:44:59;27.57;;;21.93;;
13388;SDS011;6764;53.250;10.410;2023-12-07T12:47:25;27.40;;;21.87;;
13388;SDS011;6764;53.250;10.410;2023-12-07T12:49:51;28.00;;;21.60;;
13388;SDS011;6764;53.250;10.410;2023-12-07T12:52:17;26.43;;;20.40;;
13388;SDS011;6764;53.250;10.410;2023-12-07T12:54:43;26.33;;;21.00;;
13388;SDS011;6764;53.250;10.410;2023-12-07T12:57:09;24.20;;;19.43;;
13388;SDS011;6764;53.250;10.410;2023-12-07T12:59:35;23.50;;;19.90;;
13388;SDS011;6764;53.250;10.410;2023-12-07T13:02:01;23.40;;;18.37;;
13388;SDS011;6764;53.250;10.410;2023-12-07T13:04:29;28.33;;;19.60;;
13388;SDS011;6764;53.250;10.410;2023-12-07T13:06:55;23.27;;;18.73;;
13388;SDS011;6764;53.250;10.410;2023-12-07T13:09:21;23.20;;;18.83;;
13388;SDS011;6764;53.250;10.410;2023-12-07T13:11:48;26.17;;;20.37;;
13388;SDS011;6764;53.250;10.410;2023-12-07T13:14:14;25.67;;;19.87;;
13388;SDS011;6764;53.250;10.410;2023-12-07T13:16:39;23.53;;;19.87;;
13388;SDS011;6764;53.250;10.410;2023-12-07T13:19:05;26.03;;;19.97;;
13388;SDS011;6764;53.250;10.410;2023-12-07T13:21:32;23.50;;;18.83;;
13388;SDS011;6764;53.250;10.410;2023-12-07T13:23:57;26.70;;;19.03;;
13388;SDS011;6764;53.250;10.410;2023-12-07T13:26:24;25.50;;;20.20;;
13388;SDS011;6764;53.250;10.410;2023-12-07T13:28:49;22.80;;;18.60;;
13388;SDS011;6764;53.250;10.410;2023-12-07T13:31:15;26.27;;;20.00;;
13388;SDS011;6764;53.250;10.410;2023-12-07T13:33:41;26.53;;;20.57;;
13388;SDS011;6764;53.250;10.410;2023-12-07T13:36:07;26.43;;;20.03;;
13388;SDS011;6764;53.250;10.410;2023-12-07T13:38:32;28.77;;;20.50;;
13388;SDS011;6764;53.250;10.410;2023-12-07T13:40:59;22.77;;;18.87;;
13388;SDS011;6764;53.250;10.410;2023-12-07T13:43:27;26.90;;;20.83;;
13388;SDS011;6764;53.250;10.410;2023-12-07T13:45:54;29.73;;;21.13;;
13388;SDS011;6764;53.250;10.410;2023-12-07T13:48:20;25.87;;;19.77;;
13388;SDS011;6764;53.250;10.410;2023-12-07T13:50:45;29.30;;;21.33;;
13388;SDS011;6764;53.250;10.410;2023-12-07T13:53:11;29.23;;;21.37;;
13388;SDS011;6764;53.250;10.410;2023-12-07T13:55:37;25.73;;;19.27;;
13388;SDS011;6764;53.250;10.410;2023-12-07T13:58:04;24.67;;;19.30;;
13388;SDS011;6764;53.250;10.410;2023-12-07T14:00:31;25.87;;;19.07;;
13388;SDS011;6764;53.250;10.410;2023-12-07T14:02:58;29.47;;;22.67;;
13388;SDS011;6764;53.250;10.410;2023-12-07T14:05:23;26.97;;;20.40;;
13388;SDS011;6764;53.250;10.410;2023-12-07T14:07:50;23.50;;;19.77;;
13388;SDS011;6764;53.250;10.410;2023-12-07T14:10:15;25.17;;;20.67;;
13388;SDS011;6764;53.250;10.410;2023-12-07T14:12:41;24.97;;;19.80;;
13388;SDS011;6764;53.250;10.410;2023-12-07T14:15:07;24.10;;;19.10;;
13388;SDS011;6764;53.250;10.410;2023-12-07T14:17:33;28.23;;;20.30;;
13388;SDS011;6764;53.250;10.410;2023-12-07T14:20:06;26.77;;;20.40;;
13388;SDS011;6764;53.250;10.410;2023-12-07T14:22:33;26.63;;;19.83;;
13388;SDS011;6764;53.250;10.410;2023-12-07T14:25:00;25.57;;;20.07;;